Time;durP1;ratioP1;P1;durP2;ratioP2;P2;SDS_P1;SDS_P2;PMS_P1;PMS_P2;Temp;Humidity;BMP_temperature;BMP_pressure;BME280_temperature;BME280_humidity;BME280_pressure;Samples;Min_cycle;Max_cycle;Signal;HPM_P1;HPM_P2
2021/07/18 00:00:46;;;;;;;0.50;0.30;;;17.30;99.90;;;;;;5039784;28;20485;-85
2021/07/18 00:03:13;;;;;;;0.50;0.40;;;17.20;99.90;;;;;;5039693;28;20803;-85
2021/07/18 00:05:39;;;;;;;0.50;0.30;;;17.20;99.90;;;;;;5039843;28;20493;-85
2021/07/18 00:08:07;;;;;;;0.50;0.30;;;17.10;99.90;;;;;;5039937;28;20442;-85
2021/07/18 00:10:34;;;;;;;0.50;0.30;;;17.10;99.90;;;;;;5039319;28;20768;-84
2021/07/18 00:13:01;;;;;;;0.50;0.30;;;17.10;99.90;;;;;;5039730;28;20449;-85
2021/07/18 00:15:28;;;;;;;0.50;0.37;;;17.10;99.90;;;;;;5040145;28;20453;-85
2021/07/18 00:17:56;;;;;;;0.50;0.30;;;17.00;99.90;;;;;;5039825;28;20435;-85
2021/07/18 00:20:23;;;;;;;0.50;0.30;;;17.00;99.90;;;;;;5039248;28;20447;-84
2021/07/18 00:22:50;;;;;;;0.50;0.30;;;17.00;99.90;;;;;;5038854;28;20540;-85
2021/07/18 00:25:17;;;;;;;0.50;0.30;;;17.00;99.90;;;;;;5039986;28;20435;-85
2021/07/18 00:27:43;;;;;;;0.50;0.33;;;16.90;99.90;;;;;;5039336;28;20446;-85
2021/07/18 00:30:11;;;;;;;0.50;0.30;;;16.80;99.90;;;;;;5039949;28;20438;-82
2021/07/18 00:32:38;;;;;;;0.50;0.40;;;16.80;99.90;;;;;;5039172;28;20462;-80
2021/07/18 00:35:07;;;;;;;0.50;0.30;;;16.80;99.90;;;;;;5038975;28;20472;-85
2021/07/18 00:37:34;;;;;;;0.50;0.30;;;16.80;99.90;;;;;;5039039;28;20446;-84
2021/07/18 00:40:01;;;;;;;0.50;0.30;;;16.80;99.90;;;;;;5038531;28;20508;-85
2021/07/18 00:42:28;;;;;;;0.50;0.40;;;16.70;99.90;;;;;;5039041;28;20497;-85
2021/07/18 00:44:55;;;;;;;0.50;0.30;;;16.60;99.90;;;;;;5039771;28;20441;-84
2021/07/18 00:47:22;;;;;;;0.50;0.30;;;16.60;99.90;;;;;;5038807;28;20446;-85
2021/07/18 00:49:50;;;;;;;0.50;0.30;;;16.50;99.90;;;;;;5039272;28;20474;-79
2021/07/18 00:52:18;;;;;;;0.50;0.30;;;16.50;99.90;;;;;;5039024;28;20462;-85
2021/07/18 00:54:45;;;;;;;0.50;0.30;;;16.50;99.90;;;;;;5039003;28;20443;-85
2021/07/18 00:57:12;;;;;;;0.50;0.30;;;16.40;99.90;;;;;;5039164;28;20442;-83
2021/07/18 00:59:40;;;;;;;0.50;0.30;;;16.50;99.90;;;;;;5039308;28;20471;-85
2021/07/18 01:02:07;;;;;;;0.50;0.30;;;16.50;99.90;;;;;;5047359;28;20478;-84
2021/07/18 01:04:34;;;;;;;0.50;0.40;;;16.40;99.90;;;;;;5040270;28;20446;-83
2021/07/18 01:07:02;;;;;;;0.50;0.30;;;16.40;99.90;;;;;;5041322;28;20452;-85
2021/07/18 01:09:30;;;;;;;0.50;0.30;;;16.40;99.90;;;;;;5040228;28;20939;-82
2021/07/18 01:11:57;;;;;;;0.50;0.30;;;16.30;99.90;;;;;;5040037;28;20484;-84
2021/07/18 01:14:24;;;;;;;0.50;0.30;;;16.30;99.90;;;;;;5039506;28;20459;-85
2021/07/18 01:16:51;;;;;;;0.50;0.40;;;16.30;99.90;;;;;;5040519;28;20442;-85
2021/07/18 01:19:21;;;;;;;0.50;0.30;;;16.20;99.90;;;;;;5040433;28;20438;-85
2021/07/18 01:21:56;;;;;;;0.50;0.30;;;16.20;99.90;;;;;;5039708;28;20505;-85
2021/07/18 01:24:23;;;;;;;0.50;0.33;;;16.20;99.90;;;;;;5040133;28;20465;-85
2021/07/18 01:26:50;;;;;;;0.50;0.30;;;16.20;99.90;;;;;;5040138;28;20793;-84
2021/07/18 01:29:17;;;;;;;0.50;0.40;;;16.10;99.90;;;;;;5039925;28;20442;-84
2021/07/18 01:31:44;;;;;;;0.50;0.30;;;16.10;99.90;;;;;;5039290;28;20454;-85
2021/07/18 01:34:10;;;;;;;0.50;0.30;;;16.10;99.90;;;;;;5040135;28;20445;-84
2021/07/18 01:36:37;;;;;;;0.50;0.40;;;16.10;99.90;;;;;;5039340;28;20449;-84
2021/07/18 01:39:07;;;;;;;0.50;0.30;;;16.00;99.90;;;;;;5039680;28;20446;-84
2021/07/18 01:41:33;;;;;;;0.50;0.30;;;16.10;99.90;;;;;;5039487;28;20531;-84
2021/07/18 01:44:01;;;;;;;0.50;0.30;;;16.00;99.90;;;;;;5039504;28;20565;-85
2021/07/18 01:46:27;;;;;;;0.50;0.30;;;16.00;99.90;;;;;;5039111;28;20442;-85
2021/07/18 01:48:55;;;;;;;0.50;0.30;;;16.00;99.90;;;;;;5039184;28;20449;-84
2021/07/18 01:51:22;;;;;;;0.50;0.40;;;16.10;99.90;;;;;;5038100;28;20822;-84
2021/07/18 01:53:51;;;;;;;0.50;0.40;;;16.00;99.90;;;;;;5038956;28;20538;-83
2021/07/18 01:56:20;;;;;;;0.50;0.30;;;16.00;99.90;;;;;;5039606;28;20492;-84
2021/07/18 01:58:47;;;;;;;0.50;0.40;;;16.00;99.90;;;;;;5038783;28;20806;-84
2021/07/18 02:01:14;;;;;;;0.50;0.40;;;16.00;99.90;;;;;;5038347;28;20973;-84
2021/07/18 02:03:41;;;;;;;0.50;0.30;;;15.90;99.90;;;;;;5038498;28;20950;-84
2021/07/18 02:06:07;;;;;;;0.67;0.67;;;15.90;99.90;;;;;;5039129;28;20443;-85
2021/07/18 02:08:34;;;;;;;0.50;0.40;;;15.90;99.90;;;;;;5037879;28;20437;-83
2021/07/18 02:11:01;;;;;;;0.50;0.30;;;15.90;99.90;;;;;;5038941;28;20466;-84
2021/07/18 02:13:29;;;;;;;0.50;0.30;;;15.80;99.90;;;;;;5038212;28;20444;-85
2021/07/18 02:15:58;;;;;;;0.50;0.30;;;15.80;99.90;;;;;;5038718;28;20796;-85
2021/07/18 02:18:26;;;;;;;0.50;0.30;;;15.80;99.90;;;;;;5038538;28;20441;-85
2021/07/18 02:20:54;;;;;;;0.50;0.30;;;15.70;99.90;;;;;;5038268;28;20674;-85
2021/07/18 02:23:21;;;;;;;0.50;0.30;;;15.70;99.90;;;;;;5038121;28;20481;-84
2021/07/18 02:25:49;;;;;;;0.50;0.30;;;15.70;99.90;;;;;;5038606;28;20478;-85
2021/07/18 02:28:16;;;;;;;0.50;0.30;;;15.70;99.90;;;;;;5037697;28;20441;-82
2021/07/18 02:30:44;;;;;;;0.50;0.33;;;15.70;99.90;;;;;;5037031;28;20470;-85
2021/07/18 02:33:12;;;;;;;0.50;0.40;;;15.70;99.90;;;;;;5038352;28;20431;-84
2021/07/18 02:35:39;;;;;;;0.50;0.30;;;15.70;99.90;;;;;;5038046;28;20451;-84
2021/07/18 02:38:06;;;;;;;0.50;0.30;;;15.70;99.90;;;;;;5037777;28;20450;-84
2021/07/18 02:40:33;;;;;;;0.50;0.30;;;15.70;99.90;;;;;;5037669;28;20622;-84
2021/07/18 02:42:59;;;;;;;0.50;0.37;;;15.70;99.90;;;;;;5037324;28;20482;-85
2021/07/18 02:45:26;;;;;;;0.50;0.40;;;15.60;99.90;;;;;;5037077;28;20815;-84
2021/07/18 02:47:54;;;;;;;0.50;0.30;;;15.60;99.90;;;;;;5037345;28;20534;-85
2021/07/18 02:50:24;;;;;;;0.50;0.30;;;15.60;99.90;;;;;;5037414;28;20443;-85
2021/07/18 02:52:51;;;;;;;0.50;0.40;;;15.50;99.90;;;;;;5037565;28;20457;-84
2021/07/18 02:55:18;;;;;;;0.50;0.30;;;15.50;99.90;;;;;;5037558;28;20442;-84
2021/07/18 02:57:44;;;;;;;0.50;0.40;;;15.50;99.90;;;;;;5037336;28;20450;-85
2021/07/18 03:00:13;;;;;;;0.50;0.30;;;15.50;99.90;;;;;;5037217;28;20434;-84
2021/07/18 03:02:41;;;;;;;0.50;0.30;;;15.50;99.90;;;;;;5038196;28;20490;-83
2021/07/18 03:05:11;;;;;;;0.50;0.30;;;15.50;99.90;;;;;;5041425;28;20485;-84
2021/07/18 03:07:39;;;;;;;0.50;0.40;;;15.40;99.90;;;;;;5041868;28;20523;-85
2021/07/18 03:10:06;;;;;;;0.50;0.30;;;15.40;99.90;;;;;;5041575;28;20450;-84
2021/07/18 03:12:34;;;;;;;0.50;0.30;;;15.40;99.90;;;;;;5040630;28;20831;-85
2021/07/18 03:15:01;;;;;;;0.50;0.30;;;15.40;99.90;;;;;;5042156;28;20455;-83
2021/07/18 03:17:28;;;;;;;0.50;0.30;;;15.40;99.90;;;;;;5041509;28;20512;-84
2021/07/18 03:19:54;;;;;;;0.50;0.37;;;15.40;99.90;;;;;;5040876;28;20455;-84
2021/07/18 03:22:23;;;;;;;0.50;0.30;;;15.30;99.90;;;;;;5040902;28;20979;-84
2021/07/18 03:24:49;;;;;;;0.50;0.30;;;15.30;99.90;;;;;;5041643;28;20817;-84
2021/07/18 03:27:16;;;;;;;0.50;0.30;;;15.30;99.90;;;;;;5040606;28;20826;-85
2021/07/18 03:29:43;;;;;;;0.50;0.40;;;15.30;99.90;;;;;;5041139;28;20449;-85
2021/07/18 03:32:10;;;;;;;0.50;0.30;;;15.30;99.90;;;;;;5040205;28;20460;-84
2021/07/18 03:34:36;;;;;;;0.50;0.30;;;15.30;99.90;;;;;;5040798;28;20805;-84
2021/07/18 03:37:04;;;;;;;0.50;0.40;;;15.30;99.90;;;;;;5040637;28;20941;-84
2021/07/18 03:39:32;;;;;;;0.50;0.30;;;15.30;99.90;;;;;;5040025;28;20434;-84
2021/07/18 03:41:59;;;;;;;0.50;0.30;;;15.30;99.90;;;;;;5040132;28;20489;-84
2021/07/18 03:44:25;;;;;;;0.50;0.40;;;15.30;99.90;;;;;;5040220;28;20441;-84
2021/07/18 03:46:52;;;;;;;0.50;0.40;;;15.30;99.90;;;;;;5040061;28;20447;-85
2021/07/18 03:49:19;;;;;;;0.50;0.40;;;15.30;99.90;;;;;;5040376;28;20445;-84
2021/07/18 03:51:46;;;;;;;0.50;0.40;;;15.30;99.90;;;;;;5040224;28;20462;-85
2021/07/18 03:54:12;;;;;;;0.50;0.30;;;15.30;99.90;;;;;;5040658;28;20441;-84
2021/07/18 03:56:40;;;;;;;0.50;0.40;;;15.30;99.90;;;;;;5040003;28;20445;-84
2021/07/18 03:59:07;;;;;;;0.50;0.30;;;15.30;99.90;;;;;;5040279;28;20445;-84
2021/07/18 04:01:34;;;;;;;0.50;0.33;;;15.30;99.90;;;;;;5039524;28;20461;-84
2021/07/18 04:04:00;;;;;;;0.50;0.30;;;15.40;99.90;;;;;;5040170;28;20817;-84
2021/07/18 04:06:27;;;;;;;0.50;0.30;;;15.40;99.90;;;;;;5040274;28;20520;-84
2021/07/18 04:08:54;;;;;;;0.50;0.40;;;15.40;99.90;;;;;;5040442;28;20446;-85
2021/07/18 04:11:20;;;;;;;0.50;0.30;;;15.50;99.90;;;;;;5039865;28;20458;-83
2021/07/18 04:13:48;;;;;;;0.50;0.30;;;15.50;99.90;;;;;;5039739;28;20464;-85
2021/07/18 04:16:15;;;;;;;0.50;0.40;;;15.60;99.90;;;;;;5039137;28;20446;-83
2021/07/18 04:18:42;;;;;;;0.50;0.30;;;15.60;99.90;;;;;;5040733;28;20431;-85
2021/07/18 04:21:08;;;;;;;0.50;0.30;;;15.60;99.90;;;;;;5039174;28;20454;-84
2021/07/18 04:23:35;;;;;;;0.50;0.30;;;15.60;99.90;;;;;;5039856;28;20484;-84
2021/07/18 04:26:02;;;;;;;0.50;0.40;;;15.60;99.90;;;;;;5039677;28;20442;-84
2021/07/18 04:28:29;;;;;;;0.50;0.40;;;15.70;99.90;;;;;;5040271;28;20937;-84
2021/07/18 04:30:57;;;;;;;0.50;0.30;;;15.70;99.90;;;;;;5039921;28;20453;-84
2021/07/18 04:33:23;;;;;;;0.50;0.37;;;15.80;99.90;;;;;;5040460;28;21013;-83
2021/07/18 04:35:50;;;;;;;0.50;0.50;;;15.90;99.90;;;;;;5040931;28;20454;-84
2021/07/18 04:38:17;;;;;;;0.50;0.37;;;15.90;99.90;;;;;;5040593;28;20841;-84
2021/07/18 04:40:43;;;;;;;0.50;0.30;;;15.90;99.90;;;;;;5039576;28;20465;-83
2021/07/18 04:43:10;;;;;;;0.50;0.30;;;16.00;99.90;;;;;;5040666;28;20596;-84
2021/07/18 04:45:37;;;;;;;0.50;0.40;;;16.00;99.90;;;;;;5040416;28;20447;-84
2021/07/18 04:48:06;;;;;;;0.50;0.30;;;16.10;99.90;;;;;;5040862;28;20438;-83
2021/07/18 04:50:33;;;;;;;0.50;0.30;;;16.10;99.90;;;;;;5039896;28;20438;-83
2021/07/18 04:52:59;;;;;;;0.50;0.30;;;16.10;99.90;;;;;;5039795;28;20483;-84
2021/07/18 04:55:26;;;;;;;0.50;0.30;;;16.10;99.90;;;;;;5038867;28;20451;-85
2021/07/18 04:57:53;;;;;;;0.50;0.30;;;16.20;99.90;;;;;;5039948;28;20450;-84
2021/07/18 05:00:22;;;;;;;0.50;0.40;;;16.20;99.90;;;;;;5039539;28;20468;-85
2021/07/18 05:02:50;;;;;;;0.50;0.30;;;16.30;99.90;;;;;;5039547;28;20493;-85
2021/07/18 05:05:19;;;;;;;0.50;0.30;;;16.40;99.90;;;;;;5038732;28;20438;-84
2021/07/18 05:07:50;;;;;;;0.50;0.30;;;16.40;99.90;;;;;;5040463;28;20442;-85
2021/07/18 05:10:19;;;;;;;0.50;0.30;;;16.50;99.90;;;;;;5038924;28;20450;-85
2021/07/18 05:12:45;;;;;;;0.50;0.30;;;16.50;99.90;;;;;;5039948;28;20510;-85
2021/07/18 05:15:13;;;;;;;0.50;0.30;;;16.60;99.90;;;;;;5040710;28;20451;-85
2021/07/18 05:17:40;;;;;;;0.50;0.30;;;16.70;99.90;;;;;;5040042;28;20434;-86
2021/07/18 05:20:08;;;;;;;0.50;0.30;;;16.70;99.90;;;;;;5040460;28;20946;-81
2021/07/18 05:22:36;;;;;;;0.50;0.30;;;16.80;99.90;;;;;;5040540;28;20540;-82
2021/07/18 05:25:05;;;;;;;0.50;0.30;;;16.90;99.90;;;;;;5040135;28;20997;-83
2021/07/18 05:27:32;;;;;;;0.50;0.30;;;16.90;99.90;;;;;;5040663;28;20441;-81
2021/07/18 05:29:59;;;;;;;0.50;0.30;;;17.00;99.90;;;;;;5046488;28;21010;-84
2021/07/18 05:32:26;;;;;;;0.50;0.40;;;17.10;99.90;;;;;;5039318;28;20462;-84
2021/07/18 05:34:52;;;;;;;2.40;2.30;;;17.20;99.90;;;;;;5039630;28;20439;-84
2021/07/18 05:37:19;;;;;;;0.50;0.30;;;17.30;99.90;;;;;;5039708;28;20936;-84
2021/07/18 05:39:47;;;;;;;0.50;0.30;;;17.40;99.90;;;;;;5039444;28;20449;-83
2021/07/18 05:42:14;;;;;;;0.50;0.30;;;17.50;99.90;;;;;;5038630;28;20469;-83
2021/07/18 05:44:42;;;;;;;0.50;0.30;;;17.60;99.90;;;;;;5039235;28;20450;-84
2021/07/18 05:47:09;;;;;;;0.50;0.40;;;17.70;99.90;;;;;;5038635;28;20450;-85
2021/07/18 05:49:36;;;;;;;0.50;0.30;;;17.80;99.90;;;;;;5039204;28;20454;-85
2021/07/18 05:52:03;;;;;;;0.50;0.30;;;17.80;99.90;;;;;;5039073;28;20459;-85
2021/07/18 05:54:30;;;;;;;0.50;0.30;;;17.90;99.90;;;;;;5039335;28;20493;-86
2021/07/18 05:56:58;;;;;;;0.50;0.30;;;18.00;99.90;;;;;;5039355;28;20518;-86
2021/07/18 05:59:25;;;;;;;0.50;0.30;;;18.10;99.90;;;;;;5038727;28;20451;-85
2021/07/18 06:01:52;;;;;;;1.07;0.87;;;18.20;99.90;;;;;;5040488;28;20458;-86
2021/07/18 06:04:18;;;;;;;0.50;0.30;;;18.40;99.90;;;;;;5046179;28;20470;-86
2021/07/18 06:06:45;;;;;;;2.73;1.13;;;18.60;99.90;;;;;;5037912;28;20488;-85
2021/07/18 06:09:12;;;;;;;0.50;0.30;;;18.80;99.90;;;;;;5038377;28;20523;-86
2021/07/18 06:11:38;;;;;;;0.50;0.40;;;19.00;99.90;;;;;;5037422;28;20466;-82
2021/07/18 06:14:06;;;;;;;0.50;0.30;;;19.20;99.90;;;;;;5038337;28;20446;-86
2021/07/18 06:16:33;;;;;;;0.50;0.40;;;19.50;99.90;;;;;;5038410;28;20447;-86
2021/07/18 06:19:00;;;;;;;0.50;0.30;;;19.90;99.90;;;;;;5038563;28;20457;-86
2021/07/18 06:21:26;;;;;;;0.50;0.40;;;20.90;99.90;;;;;;5037775;28;20504;-86
2021/07/18 06:23:53;;;;;;;0.50;0.30;;;22.60;99.90;;;;;;5037351;28;20485;-86
2021/07/18 06:26:20;;;;;;;0.50;0.30;;;24.60;99.90;;;;;;5038081;28;20436;-86
2021/07/18 06:28:46;;;;;;;0.50;0.30;;;26.60;99.90;;;;;;5038438;28;20434;-86
2021/07/18 06:31:14;;;;;;;0.50;0.30;;;27.90;99.90;;;;;;5038539;28;20462;-84
2021/07/18 06:33:41;;;;;;;0.50;0.30;;;29.40;99.90;;;;;;5038436;28;20440;-82
2021/07/18 06:36:08;;;;;;;0.50;0.30;;;30.70;99.90;;;;;;5038383;28;20467;-84
2021/07/18 06:38:35;;;;;;;0.70;0.70;;;31.60;99.90;;;;;;5039760;28;20453;-83
2021/07/18 06:41:03;;;;;;;0.83;0.83;;;31.80;94.60;;;;;;5038574;28;20465;-84
2021/07/18 06:43:30;;;;;;;0.50;0.30;;;32.70;90.90;;;;;;5039157;28;20490;-84
2021/07/18 06:45:56;;;;;;;0.50;0.30;;;33.60;90.00;;;;;;5039415;28;20443;-85
2021/07/18 06:48:24;;;;;;;0.47;0.30;;;34.50;79.90;;;;;;5039289;28;20449;-85
2021/07/18 06:50:51;;;;;;;0.40;0.30;;;34.30;71.60;;;;;;5039041;28;20464;-82
2021/07/18 06:53:18;;;;;;;0.40;0.30;;;34.70;72.80;;;;;;5039509;28;20437;-86
2021/07/18 06:55:44;;;;;;;0.40;0.30;;;35.20;70.90;;;;;;5039904;28;20446;-83
2021/07/18 06:58:11;;;;;;;0.40;0.30;;;35.70;69.60;;;;;;5039329;28;20942;-85
2021/07/18 07:00:38;;;;;;;0.40;0.30;;;36.50;66.00;;;;;;5039210;28;20805;-83
2021/07/18 07:03:05;;;;;;;0.40;0.30;;;36.80;63.30;;;;;;5038861;28;20497;-85
2021/07/18 07:05:33;;;;;;;0.40;0.30;;;37.00;61.50;;;;;;5039033;28;20519;-85
2021/07/18 07:07:59;;;;;;;0.40;0.40;;;37.30;61.70;;;;;;5039626;28;20444;-86
2021/07/18 07:10:26;;;;;;;0.40;0.30;;;37.60;60.70;;;;;;5039478;28;20451;-85
2021/07/18 07:12:53;;;;;;;0.40;0.30;;;38.40;59.20;;;;;;5039136;28;21008;-85
2021/07/18 07:15:19;;;;;;;0.40;0.30;;;38.80;57.20;;;;;;5039755;28;20888;-85
2021/07/18 07:17:46;;;;;;;0.40;0.30;;;39.20;57.00;;;;;;5039322;28;20442;-86
2021/07/18 07:20:14;;;;;;;0.40;0.30;;;39.50;54.70;;;;;;5039669;28;20452;-85
2021/07/18 07:22:42;;;;;;;0.40;0.30;;;39.20;54.90;;;;;;5038806;28;20466;-82
2021/07/18 07:25:12;;;;;;;0.40;0.30;;;38.20;54.20;;;;;;5038943;28;20448;-86
2021/07/18 07:27:41;;;;;;;0.40;0.30;;;38.60;55.40;;;;;;5038783;28;20470;-86
2021/07/18 07:30:10;;;;;;;0.40;0.30;;;38.50;53.80;;;;;;5038434;28;20453;-84
2021/07/18 07:32:37;;;;;;;0.40;0.30;;;38.80;55.70;;;;;;5039781;28;20465;-86
2021/07/18 07:35:05;;;;;;;0.40;0.30;;;39.20;55.10;;;;;;5039771;28;20441;-86
2021/07/18 07:37:31;;;;;;;0.40;0.30;;;39.10;54.60;;;;;;5040204;28;20448;-86
2021/07/18 07:39:59;;;;;;;0.40;0.30;;;39.40;52.90;;;;;;5040005;28;20460;-85
2021/07/18 07:42:26;;;;;;;0.40;0.30;;;39.80;53.00;;;;;;5039012;28;20458;-85
2021/07/18 07:44:53;;;;;;;0.40;0.30;;;40.20;51.10;;;;;;5038937;28;20474;-85
2021/07/18 07:47:20;;;;;;;0.40;0.30;;;40.30;52.10;;;;;;5039785;28;20965;-86
2021/07/18 07:49:47;;;;;;;0.40;0.30;;;39.60;52.50;;;;;;5040946;28;20488;-86
2021/07/18 07:52:14;;;;;;;0.40;0.30;;;40.10;51.30;;;;;;5043070;28;20465;-86
2021/07/18 07:54:43;;;;;;;0.40;0.30;;;40.80;50.80;;;;;;5043049;28;20468;-85
2021/07/18 07:57:11;;;;;;;0.40;0.30;;;41.10;50.10;;;;;;5043780;28;20448;-86
2021/07/18 07:59:38;;;;;;;5.40;0.83;;;41.60;48.70;;;;;;5043113;28;20451;-85
2021/07/18 08:02:05;;;;;;;0.40;0.30;;;41.90;49.80;;;;;;5042553;28;21008;-86
2021/07/18 08:04:32;;;;;;;0.40;0.30;;;41.80;49.20;;;;;;5042813;28;20525;-85
2021/07/18 08:06:58;;;;;;;0.70;0.67;;;41.90;49.10;;;;;;4988103;28;20605;-81
2021/07/18 08:09:25;;;;;;;0.40;0.30;;;42.50;49.30;;;;;;4970483;28;20684;-79
2021/07/18 08:11:52;;;;;;;0.40;0.30;;;43.00;47.90;;;;;;5011497;28;20467;-84
2021/07/18 08:14:20;;;;;;;0.40;0.30;;;42.00;48.00;;;;;;5042319;28;20447;-84
2021/07/18 08:16:47;;;;;;;0.40;0.30;;;41.90;50.10;;;;;;5042481;28;20440;-82
2021/07/18 08:19:13;;;;;;;0.40;0.30;;;41.80;48.90;;;;;;5044464;28;20447;-85
2021/07/18 08:21:40;;;;;;;0.40;0.30;;;42.60;48.20;;;;;;5043561;28;20840;-82
2021/07/18 08:24:07;;;;;;;0.40;0.30;;;43.20;48.10;;;;;;5044489;28;20482;-84
2021/07/18 08:26:34;;;;;;;0.40;0.30;;;43.50;47.80;;;;;;5044861;28;20442;-84
2021/07/18 08:29:01;;;;;;;0.40;0.30;;;43.50;47.90;;;;;;5042633;28;20813;-84
2021/07/18 08:31:29;;;;;;;0.40;0.30;;;43.00;47.10;;;;;;5042103;28;20549;-83
2021/07/18 08:33:55;;;;;;;0.40;0.30;;;43.20;47.40;;;;;;5042000;28;20434;-84
2021/07/18 08:36:22;;;;;;;0.40;0.30;;;43.20;47.00;;;;;;5042736;28;20438;-84
2021/07/18 08:38:49;;;;;;;0.40;0.30;;;43.00;45.70;;;;;;5042229;28;20438;-83
2021/07/18 08:41:16;;;;;;;0.40;0.40;;;43.30;46.80;;;;;;5041921;28;20454;-83
2021/07/18 08:43:44;;;;;;;0.40;0.30;;;43.60;47.10;;;;;;5041445;28;20470;-81
2021/07/18 08:46:11;;;;;;;0.40;0.30;;;43.10;45.20;;;;;;5042241;28;20449;-84
2021/07/18 08:48:39;;;;;;;0.40;0.30;;;42.30;46.70;;;;;;5041808;28;20449;-84
2021/07/18 08:51:05;;;;;;;0.40;0.30;;;42.30;48.00;;;;;;5041388;28;20470;-84
2021/07/18 08:53:33;;;;;;;0.40;0.30;;;42.50;46.00;;;;;;5042567;28;20500;-83
2021/07/18 08:56:00;;;;;;;0.40;0.30;;;42.60;46.60;;;;;;5042492;28;20447;-84
2021/07/18 08:58:28;;;;;;;0.40;0.30;;;42.80;48.70;;;;;;5042820;28;20461;-84
2021/07/18 09:00:54;;;;;;;0.40;0.30;;;43.30;46.90;;;;;;5042745;28;20954;-84
2021/07/18 09:03:21;;;;;;;0.40;0.30;;;43.80;45.30;;;;;;5043291;28;20442;-82
2021/07/18 09:05:52;;;;;;;0.40;0.30;;;44.20;46.20;;;;;;5043354;28;20443;-84
2021/07/18 09:08:20;;;;;;;0.40;0.30;;;43.60;45.00;;;;;;5043833;28;20868;-84
2021/07/18 09:10:48;;;;;;;0.40;0.30;;;44.00;46.50;;;;;;5043323;28;20990;-84
2021/07/18 09:13:18;;;;;;;0.40;0.30;;;44.30;45.60;;;;;;5043218;28;20431;-84
2021/07/18 09:15:46;;;;;;;0.40;0.30;;;44.60;44.60;;;;;;5045052;28;21009;-81
2021/07/18 09:18:14;;;;;;;0.43;0.40;;;44.90;44.10;;;;;;5043209;28;20435;-84
2021/07/18 09:20:43;;;;;;;0.70;0.70;;;44.40;44.20;;;;;;5040562;28;20442;-86
2021/07/18 09:23:15;;;;;;;0.40;0.30;;;43.20;44.60;;;;;;5041056;28;20453;-84
2021/07/18 09:25:42;;;;;;;0.40;0.30;;;42.70;45.90;;;;;;5042704;28;20489;-86
2021/07/18 09:28:17;;;;;;;0.40;0.30;;;42.90;45.70;;;;;;5040149;28;20455;-85
2021/07/18 09:30:44;;;;;;;0.50;0.40;;;42.80;47.40;;;;;;5041463;28;20468;-84
2021/07/18 09:33:22;;;;;;;0.40;0.30;;;42.90;46.10;;;;;;5042079;28;20442;-84
2021/07/18 09:35:49;;;;;;;0.40;0.30;;;43.00;46.70;;;;;;5041905;28;20423;-84
2021/07/18 09:38:26;;;;;;;0.60;0.30;;;43.00;47.00;;;;;;5042140;28;20445;-83
2021/07/18 09:40:58;;;;;;;0.40;0.30;;;43.40;45.50;;;;;;5041264;28;20472;-84
2021/07/18 09:43:27;;;;;;;0.40;0.30;;;43.30;45.90;;;;;;5041715;28;20442;-83
2021/07/18 09:45:59;;;;;;;0.50;0.33;;;42.20;46.20;;;;;;5040596;28;20447;-86
2021/07/18 09:48:36;;;;;;;0.40;0.30;;;41.10;47.70;;;;;;5039842;28;20444;-86
2021/07/18 09:51:08;;;;;;;0.40;0.30;;;41.20;47.00;;;;;;5046936;28;20541;-86
2021/07/18 09:53:36;;;;;;;0.40;0.30;;;41.70;48.60;;;;;;5040906;28;20431;-85
2021/07/18 09:56:08;;;;;;;0.70;0.50;;;41.60;48.30;;;;;;5040250;28;20987;-84
2021/07/18 09:58:35;;;;;;;0.40;0.30;;;40.90;48.30;;;;;;5040835;28;20916;-84
2021/07/18 10:01:03;;;;;;;0.40;0.30;;;41.30;48.80;;;;;;5040059;28;20539;-84
2021/07/18 10:03:30;;;;;;;0.40;0.30;;;41.70;49.10;;;;;;5040613;28;20443;-84
2021/07/18 10:06:10;;;;;;;0.43;0.37;;;41.30;49.50;;;;;;5040491;28;20477;-86
2021/07/18 10:08:40;;;;;;;0.40;0.30;;;41.40;47.30;;;;;;5040050;28;20438;-85
2021/07/18 10:11:09;;;;;;;0.40;0.30;;;41.40;48.50;;;;;;5040570;28;20820;-86
2021/07/18 10:13:37;;;;;;;0.40;0.30;;;42.00;48.90;;;;;;5040554;28;20472;-84
2021/07/18 10:16:04;;;;;;;0.40;0.30;;;42.40;47.60;;;;;;5042107;28;20457;-83
2021/07/18 10:18:32;;;;;;;0.40;0.33;;;43.00;47.10;;;;;;5041545;28;20442;-84
2021/07/18 10:20:59;;;;;;;0.40;0.30;;;43.30;47.60;;;;;;5041166;28;20467;-84
2021/07/18 10:23:26;;;;;;;0.40;0.30;;;43.30;46.50;;;;;;5041357;28;20546;-83
2021/07/18 10:25:54;;;;;;;0.40;0.37;;;43.50;47.00;;;;;;5040990;28;20496;-86
2021/07/18 10:28:24;;;;;;;0.40;0.30;;;42.90;46.10;;;;;;5039355;28;20805;-86
2021/07/18 10:30:55;;;;;;;1.27;0.80;;;41.90;49.20;;;;;;5040212;28;20489;-85
2021/07/18 10:33:24;;;;;;;0.40;0.30;;;42.00;47.40;;;;;;5040462;28;20418;-83
2021/07/18 10:35:53;;;;;;;0.40;0.30;;;42.30;47.90;;;;;;5040277;28;20480;-84
2021/07/18 10:38:21;;;;;;;0.40;0.30;;;42.50;48.20;;;;;;5040297;28;20450;-84
2021/07/18 10:40:52;;;;;;;0.50;0.50;;;42.90;48.40;;;;;;5039460;28;20444;-84
2021/07/18 10:43:40;;;;;;;0.40;0.30;;;43.50;47.80;;;;;;5041036;28;20453;-84
2021/07/18 10:46:09;;;;;;;0.67;0.67;;;43.70;45.60;;;;;;5039492;28;20485;-84
2021/07/18 10:48:59;;;;;;;0.40;0.30;;;43.20;46.50;;;;;;5039330;28;20445;-82
2021/07/18 10:51:36;;;;;;;0.40;0.30;;;42.40;47.90;;;;;;5021501;28;20470;-84
2021/07/18 10:54:09;;;;;;;2.83;0.87;;;41.70;48.00;;;;;;5039473;28;20432;-83
2021/07/18 10:56:41;;;;;;;0.40;0.30;;;41.30;49.20;;;;;;5040357;28;20432;-86
2021/07/18 10:59:09;;;;;;;0.40;0.30;;;41.50;51.30;;;;;;5040020;28;20442;-85
2021/07/18 11:01:38;;;;;;;0.40;0.30;;;41.50;49.60;;;;;;5039612;28;20536;-83
2021/07/18 11:04:07;;;;;;;0.40;0.30;;;41.00;50.00;;;;;;5039220;28;20445;-84
2021/07/18 11:06:37;;;;;;;0.40;0.30;;;41.70;49.30;;;;;;5039338;28;21004;-86
2021/07/18 11:09:13;;;;;;;0.40;0.30;;;41.80;49.10;;;;;;5039228;28;20454;-86
2021/07/18 11:11:41;;;;;;;0.60;0.50;;;41.90;47.70;;;;;;5038961;28;20481;-83
2021/07/18 11:14:29;;;;;;;0.40;0.30;;;42.30;49.30;;;;;;5039695;28;20450;-84
2021/07/18 11:16:57;;;;;;;0.40;0.30;;;42.40;48.60;;;;;;5039749;28;21011;-84
2021/07/18 11:19:56;;;;;;;0.40;0.30;;;43.10;48.00;;;;;;5040200;28;20437;-83
2021/07/18 11:23:00;;;;;;;0.40;0.30;;;42.40;48.00;;;;;;5038939;28;20477;-84
2021/07/18 11:25:44;;;;;;;0.40;0.30;;;42.20;49.40;;;;;;5042194;28;20485;-84
2021/07/18 11:28:53;;;;;;;0.60;0.47;;;41.70;49.80;;;;;;5043497;28;20438;-84
2021/07/18 11:31:37;;;;;;;0.70;0.70;;;41.40;49.90;;;;;;5042863;28;20462;-84
2021/07/18 11:34:15;;;;;;;0.40;0.30;;;41.30;50.90;;;;;;5042846;28;20438;-84
2021/07/18 11:37:05;;;;;;;0.40;0.40;;;41.60;49.70;;;;;;5043588;28;20423;-84
2021/07/18 11:39:37;;;;;;;0.70;0.40;;;41.50;49.00;;;;;;5038613;28;20452;-87
2021/07/18 11:42:09;;;;;;;0.40;0.30;;;40.90;50.20;;;;;;5042720;28;20475;-84
2021/07/18 11:44:39;;;;;;;0.40;0.30;;;41.30;51.10;;;;;;5042573;28;21010;-83
2021/07/18 11:47:11;;;;;;;0.40;0.30;;;42.10;50.20;;;;;;5043167;28;20437;-84
2021/07/18 11:49:43;;;;;;;0.40;0.30;;;41.80;49.90;;;;;;5043437;28;20453;-84
2021/07/18 11:52:12;;;;;;;0.40;0.30;;;41.80;49.70;;;;;;5042073;28;20462;-83
2021/07/18 11:54:40;;;;;;;0.40;0.30;;;42.30;49.00;;;;;;5043303;28;20446;-83
2021/07/18 11:57:10;;;;;;;0.40;0.30;;;41.80;48.50;;;;;;5042552;28;20452;-84
2021/07/18 11:59:38;;;;;;;0.40;0.30;;;41.00;51.30;;;;;;5042245;28;20446;-84
2021/07/18 12:02:06;;;;;;;0.40;0.30;;;41.40;49.90;;;;;;5043379;28;20461;-84
2021/07/18 12:04:33;;;;;;;0.40;0.30;;;42.00;49.20;;;;;;5042091;28;20553;-83
2021/07/18 12:07:02;;;;;;;0.40;0.30;;;42.30;50.30;;;;;;5043269;28;20435;-84
2021/07/18 12:09:30;;;;;;;0.40;0.30;;;42.70;47.60;;;;;;5042619;28;20450;-84
2021/07/18 12:12:00;;;;;;;0.40;0.30;;;42.80;49.40;;;;;;5042832;28;20465;-84
2021/07/18 12:14:32;;;;;;;0.40;0.30;;;42.90;48.80;;;;;;5042702;28;20457;-84
2021/07/18 12:16:59;;;;;;;0.50;0.40;;;42.50;48.90;;;;;;5042207;28;20443;-84
2021/07/18 12:19:27;;;;;;;0.40;0.30;;;42.30;48.50;;;;;;5042121;28;20492;-84
2021/07/18 12:21:54;;;;;;;0.40;0.30;;;42.00;50.30;;;;;;5041753;28;20466;-84
2021/07/18 12:24:25;;;;;;;0.40;0.30;;;42.10;49.10;;;;;;5041684;28;20439;-83
2021/07/18 12:27:07;;;;;;;0.40;0.30;;;42.00;49.20;;;;;;5042330;28;20434;-84
2021/07/18 12:29:36;;;;;;;0.40;0.30;;;42.00;50.80;;;;;;5042598;28;20955;-83
2021/07/18 12:32:04;;;;;;;0.40;0.30;;;41.80;49.10;;;;;;5041866;28;20459;-84
2021/07/18 12:34:32;;;;;;;0.40;0.30;;;41.80;50.90;;;;;;5042658;28;20469;-83
2021/07/18 12:37:02;;;;;;;0.40;0.30;;;42.30;50.20;;;;;;5041550;28;20446;-84
2021/07/18 12:39:31;;;;;;;0.40;0.30;;;42.50;49.70;;;;;;5042930;28;20437;-84
2021/07/18 12:42:01;;;;;;;0.43;0.40;;;42.10;49.30;;;;;;5041919;28;20456;-84
2021/07/18 12:44:32;;;;;;;0.40;0.30;;;41.70;49.40;;;;;;5041092;28;20431;-84
2021/07/18 12:47:28;;;;;;;0.40;0.30;;;41.80;48.70;;;;;;5042004;28;20434;-84
2021/07/18 12:50:27;;;;;;;0.40;0.30;;;42.00;50.80;;;;;;5041234;28;20419;-84
2021/07/18 12:53:03;;;;;;;0.40;0.30;;;42.00;50.00;;;;;;5034449;28;20466;-84
2021/07/18 12:55:34;;;;;;;0.40;0.30;;;41.70;50.50;;;;;;5042454;28;20437;-83